Time;durP1;ratioP1;P1;durP2;ratioP2;P2;SDS_P1;SDS_P2;PMS_P1;PMS_P2;Temp;Humidity;BMP_temperature;BMP_pressure;BME280_temperature;BME280_humidity;BME280_pressure;Samples;Min_cycle;Max_cycle;Signal;HPM_P1;HPM_P2
2022/09/14 00:00:55;;;;;;;4.03;3.13;;;16.80;99.90;;;;;;478990;247;28755;-69
2022/09/14 00:02:56;;;;;;;4.87;3.07;;;16.80;99.90;;;;;;478976;248;28774;-71
2022/09/14 00:04:57;;;;;;;3.07;2.77;;;16.90;99.90;;;;;;478960;248;28709;-70
2022/09/14 00:06:58;;;;;;;4.70;3.20;;;16.90;99.90;;;;;;478891;247;28779;-70
2022/09/14 00:09:02;;;;;;;3.00;2.80;;;17.00;99.90;;;;;;478934;248;29091;-72
2022/09/14 00:11:03;;;;;;;4.10;3.03;;;17.00;99.90;;;;;;478959;248;30187;-69
2022/09/14 00:13:05;;;;;;;3.03;2.83;;;17.00;99.90;;;;;;478953;248;29203;-70
2022/09/14 00:15:06;;;;;;;3.00;2.80;;;17.00;99.90;;;;;;478987;248;29235;-72
2022/09/14 00:17:07;;;;;;;3.40;3.10;;;16.90;99.90;;;;;;478905;248;29254;-70
2022/09/14 00:19:08;;;;;;;3.90;2.97;;;16.80;99.90;;;;;;478928;248;28766;-70
2022/09/14 00:21:10;;;;;;;4.10;2.90;;;16.80;99.90;;;;;;478949;248;28799;-70
2022/09/14 00:23:11;;;;;;;4.30;3.30;;;16.90;99.90;;;;;;478975;246;28719;-70
2022/09/14 00:25:12;;;;;;;3.23;2.93;;;17.00;99.90;;;;;;478980;248;28824;-72
2022/09/14 00:27:14;;;;;;;3.30;3.00;;;17.00;99.90;;;;;;478880;248;28703;-69
2022/09/14 00:29:15;;;;;;;3.97;3.30;;;16.90;99.90;;;;;;478944;248;28751;-70
2022/09/14 00:31:16;;;;;;;3.57;3.27;;;16.90;99.90;;;;;;478957;248;28752;-70
2022/09/14 00:33:18;;;;;;;2.87;2.57;;;16.90;99.90;;;;;;478954;248;28788;-69
2022/09/14 00:35:19;;;;;;;3.80;3.30;;;16.90;99.90;;;;;;478944;248;28742;-70
2022/09/14 00:37:20;;;;;;;5.47;3.13;;;16.90;99.90;;;;;;478893;248;29182;-70
2022/09/14 00:39:22;;;;;;;4.60;3.23;;;16.80;99.90;;;;;;478965;248;29247;-72
2022/09/14 00:41:22;;;;;;;2.77;2.57;;;16.80;99.90;;;;;;478939;248;30099;-70
2022/09/14 00:43:24;;;;;;;3.03;2.83;;;16.90;99.90;;;;;;478982;248;28728;-70
2022/09/14 00:45:25;;;;;;;2.70;2.50;;;16.80;99.90;;;;;;478950;248;28744;-71
2022/09/14 00:47:26;;;;;;;2.70;2.50;;;16.80;99.90;;;;;;478936;248;28754;-70
2022/09/14 00:49:27;;;;;;;3.03;2.83;;;16.80;99.90;;;;;;478970;247;28844;-70
2022/09/14 00:51:29;;;;;;;2.60;2.40;;;16.90;99.90;;;;;;478961;248;28714;-70
2022/09/14 00:53:30;;;;;;;2.70;2.50;;;16.90;99.90;;;;;;478955;248;28758;-70
2022/09/14 00:55:31;;;;;;;2.60;2.40;;;16.90;99.90;;;;;;478989;247;28842;-73
2022/09/14 00:57:32;;;;;;;3.40;2.87;;;16.80;99.90;;;;;;478895;248;28806;-70
2022/09/14 00:59:34;;;;;;;2.70;2.50;;;16.80;99.90;;;;;;478948;248;28769;-69
2022/09/14 01:01:35;;;;;;;2.53;2.33;;;16.70;99.90;;;;;;478938;246;29196;-70
2022/09/14 01:03:36;;;;;;;3.27;3.00;;;16.70;99.90;;;;;;478953;248;29310;-70
2022/09/14 01:05:37;;;;;;;3.30;3.00;;;16.70;99.90;;;;;;478969;248;29246;-72
2022/09/14 01:07:39;;;;;;;2.70;2.50;;;16.70;99.90;;;;;;478916;248;28736;-70
2022/09/14 01:09:40;;;;;;;2.87;2.57;;;16.70;99.90;;;;;;478982;248;28743;-70
2022/09/14 01:11:41;;;;;;;3.77;2.77;;;16.80;99.90;;;;;;478956;248;28715;-69
2022/09/14 01:13:42;;;;;;;2.80;2.43;;;16.80;99.90;;;;;;478982;248;28727;-70
2022/09/14 01:15:44;;;;;;;2.70;2.50;;;16.80;99.90;;;;;;478990;248;28830;-73
2022/09/14 01:17:45;;;;;;;3.70;3.40;;;16.70;99.90;;;;;;478945;248;28815;-70
2022/09/14 01:19:46;;;;;;;3.20;3.00;;;16.70;99.90;;;;;;478981;248;28779;-70
2022/09/14 01:21:48;;;;;;;5.10;3.43;;;16.70;99.90;;;;;;478928;248;28803;-70
2022/09/14 01:23:49;;;;;;;3.60;3.30;;;16.60;99.90;;;;;;478937;248;28737;-70
2022/09/14 01:25:50;;;;;;;3.07;2.87;;;16.60;99.90;;;;;;478970;246;29313;-73
2022/09/14 01:27:51;;;;;;;3.23;2.60;;;16.60;99.90;;;;;;478923;248;29242;-70
2022/09/14 01:29:52;;;;;;;3.10;2.80;;;16.70;99.90;;;;;;478954;248;29223;-70
2022/09/14 01:31:54;;;;;;;2.80;2.60;;;16.80;99.90;;;;;;478945;248;29164;-70
2022/09/14 01:33:55;;;;;;;2.57;2.43;;;16.80;99.90;;;;;;478944;248;28755;-70
2022/09/14 01:35:56;;;;;;;2.63;2.50;;;16.90;99.90;;;;;;478958;248;28785;-71
2022/09/14 01:37:57;;;;;;;2.53;2.33;;;16.80;99.90;;;;;;478908;248;28787;-69
2022/09/14 01:39:59;;;;;;;3.33;3.03;;;16.90;99.90;;;;;;478940;248;28838;-70
2022/09/14 01:42:00;;;;;;;3.40;2.77;;;16.70;99.90;;;;;;478942;248;28715;-70
2022/09/14 01:44:03;;;;;;;3.03;2.63;;;16.60;99.90;;;;;;478937;248;28763;-70
2022/09/14 01:46:02;;;;;;;3.77;2.50;;;16.50;99.90;;;;;;478854;248;29082;-72
2022/09/14 01:48:04;;;;;;;2.80;2.60;;;16.50;99.90;;;;;;478933;248;28729;-69
2022/09/14 01:50:05;;;;;;;2.90;2.70;;;16.50;99.90;;;;;;478945;248;29293;-71
2022/09/14 01:52:06;;;;;;;2.93;2.73;;;16.40;99.90;;;;;;478949;248;29257;-70
2022/09/14 01:54:07;;;;;;;2.90;2.60;;;16.40;99.90;;;;;;478914;248;29280;-70
2022/09/14 01:56:09;;;;;;;4.23;2.40;;;16.50;99.90;;;;;;478857;248;29418;-73
2022/09/14 01:58:10;;;;;;;2.43;2.23;;;16.60;99.90;;;;;;478939;248;28807;-70
2022/09/14 02:00:11;;;;;;;2.43;2.23;;;16.70;99.90;;;;;;478937;248;28762;-71
2022/09/14 02:02:12;;;;;;;2.40;2.20;;;16.70;99.90;;;;;;478921;248;28810;-71
2022/09/14 02:04:14;;;;;;;2.20;2.10;;;16.70;99.90;;;;;;478921;248;28822;-70
2022/09/14 02:06:15;;;;;;;1.97;1.87;;;16.70;99.90;;;;;;478905;248;29171;-70
2022/09/14 02:08:16;;;;;;;2.40;2.30;;;16.70;99.90;;;;;;478942;248;28809;-70
2022/09/14 02:10:17;;;;;;;2.47;2.27;;;16.70;99.90;;;;;;478936;246;28761;-70
2022/09/14 02:12:19;;;;;;;2.30;2.10;;;16.70;99.90;;;;;;478927;248;28821;-70
2022/09/14 02:14:20;;;;;;;2.00;1.90;;;16.60;99.90;;;;;;478936;248;28764;-70
2022/09/14 02:16:21;;;;;;;2.47;2.23;;;16.60;99.90;;;;;;478885;248;29258;-72
2022/09/14 02:18:22;;;;;;;2.20;2.10;;;16.60;99.90;;;;;;478955;248;29250;-70
2022/09/14 02:20:24;;;;;;;2.53;2.23;;;16.60;99.90;;;;;;478942;246;29309;-70
2022/09/14 02:22:25;;;;;;;2.00;1.90;;;16.70;99.90;;;;;;478960;248;28801;-69
2022/09/14 02:24:26;;;;;;;2.50;2.17;;;16.70;99.90;;;;;;478924;248;28756;-70
2022/09/14 02:26:27;;;;;;;2.93;2.00;;;16.70;99.90;;;;;;478906;248;28865;-73
2022/09/14 02:28:29;;;;;;;2.80;2.53;;;16.60;99.90;;;;;;478962;248;28708;-69
2022/09/14 02:30:32;;;;;;;2.30;2.10;;;16.50;99.90;;;;;;478956;248;28804;-71
2022/09/14 02:32:31;;;;;;;2.70;2.30;;;16.50;99.90;;;;;;478825;248;28731;-69
2022/09/14 02:34:32;;;;;;;6.20;1.90;;;16.60;99.90;;;;;;478958;248;28759;-70
2022/09/14 02:36:34;;;;;;;2.27;2.07;;;16.60;99.90;;;;;;478941;248;28830;-71
2022/09/14 02:38:35;;;;;;;2.47;2.00;;;16.60;99.90;;;;;;478985;248;28814;-70
2022/09/14 02:40:36;;;;;;;1.90;1.80;;;16.60;99.90;;;;;;478936;248;29273;-70
2022/09/14 02:42:37;;;;;;;2.80;1.80;;;16.60;99.90;;;;;;478967;248;29284;-69
2022/09/14 02:44:39;;;;;;;1.90;1.80;;;16.60;99.90;;;;;;478984;248;29285;-70
2022/09/14 02:46:40;;;;;;;3.37;2.13;;;16.60;99.90;;;;;;478950;248;28759;-73
2022/09/14 02:48:41;;;;;;;1.90;1.80;;;16.50;99.90;;;;;;478987;246;28734;-69
2022/09/14 02:50:42;;;;;;;1.80;1.70;;;16.50;99.90;;;;;;478973;248;28758;-71
2022/09/14 02:52:44;;;;;;;1.90;1.70;;;16.60;99.90;;;;;;478958;248;28791;-70
2022/09/14 02:54:45;;;;;;;1.80;1.70;;;16.60;99.90;;;;;;478946;248;28760;-69
2022/09/14 02:56:46;;;;;;;1.87;1.70;;;16.70;99.90;;;;;;478903;248;28800;-73
2022/09/14 02:58:47;;;;;;;2.20;2.00;;;16.70;99.90;;;;;;478978;248;28884;-70
2022/09/14 03:00:49;;;;;;;3.73;2.20;;;16.60;99.90;;;;;;478967;248;28766;-70
2022/09/14 03:02:50;;;;;;;3.10;1.80;;;16.60;99.90;;;;;;478954;248;28710;-69
2022/09/14 03:04:52;;;;;;;1.80;1.70;;;16.60;99.90;;;;;;478955;248;29213;-70
2022/09/14 03:06:52;;;;;;;2.00;1.77;;;16.50;99.90;;;;;;478920;248;29389;-73
2022/09/14 03:08:54;;;;;;;3.37;1.90;;;16.50;99.90;;;;;;478962;248;29285;-69
2022/09/14 03:10:55;;;;;;;2.17;1.97;;;16.50;99.90;;;;;;478964;248;29237;-70
2022/09/14 03:12:56;;;;;;;2.70;2.20;;;16.50;99.90;;;;;;478965;248;28829;-70
2022/09/14 03:14:58;;;;;;;5.00;2.50;;;16.40;99.90;;;;;;478973;248;28808;-70
2022/09/14 03:16:59;;;;;;;2.60;2.00;;;16.50;99.90;;;;;;478904;248;28834;-73
2022/09/14 03:19:00;;;;;;;2.20;1.90;;;16.50;99.90;;;;;;478974;248;28703;-70
2022/09/14 03:21:01;;;;;;;2.47;2.27;;;16.50;99.90;;;;;;478933;247;28773;-70
2022/09/14 03:23:02;;;;;;;2.00;1.83;;;16.50;99.90;;;;;;478930;248;28719;-70
2022/09/14 03:25:04;;;;;;;2.03;1.93;;;16.50;99.90;;;;;;478951;248;28745;-70
2022/09/14 03:27:05;;;;;;;4.80;2.10;;;16.60;99.90;;;;;;478813;248;28774;-71
2022/09/14 03:29:06;;;;;;;2.60;1.93;;;16.60;99.90;;;;;;478943;247;29203;-70
2022/09/14 03:31:08;;;;;;;1.70;1.60;;;16.60;99.90;;;;;;478939;248;29245;-70
2022/09/14 03:33:09;;;;;;;2.13;1.93;;;16.70;99.90;;;;;;478960;248;29169;-70
2022/09/14 03:35:10;;;;;;;3.27;1.80;;;16.70;99.90;;;;;;478970;248;29204;-74
2022/09/14 03:37:11;;;;;;;1.80;1.70;;;16.70;99.90;;;;;;478910;247;28865;-73
2022/09/14 03:39:13;;;;;;;1.73;1.63;;;16.70;99.90;;;;;;478946;248;28713;-70
2022/09/14 03:41:14;;;;;;;2.10;2.00;;;16.70;99.90;;;;;;478953;248;28762;-70
2022/09/14 03:43:15;;;;;;;1.70;1.60;;;16.60;99.90;;;;;;478947;248;28775;-70
2022/09/14 03:45:16;;;;;;;2.73;1.67;;;16.70;99.90;;;;;;478965;248;28761;-70
2022/09/14 03:47:17;;;;;;;1.60;1.50;;;16.60;99.90;;;;;;478884;248;28825;-72
2022/09/14 03:49:19;;;;;;;1.70;1.60;;;16.60;99.90;;;;;;478976;248;28785;-71
2022/09/14 03:51:20;;;;;;;1.40;1.40;;;16.60;99.90;;;;;;478948;248;28753;-70
2022/09/14 03:53:21;;;;;;;1.70;1.60;;;16.60;99.90;;;;;;478940;248;28715;-71
2022/09/14 03:55:22;;;;;;;1.70;1.60;;;16.70;99.90;;;;;;478979;248;29210;-70
2022/09/14 03:57:24;;;;;;;1.80;1.70;;;16.70;99.90;;;;;;478950;248;29237;-72
2022/09/14 03:59:25;;;;;;;1.67;1.57;;;16.70;99.90;;;;;;478991;247;29173;-70
2022/09/14 04:01:26;;;;;;;1.40;1.40;;;16.70;99.90;;;;;;478978;248;28854;-71
2022/09/14 04:03:27;;;;;;;1.80;1.70;;;16.70;99.90;;;;;;478991;248;28728;-69
2022/09/14 04:05:29;;;;;;;1.80;1.70;;;16.70;99.90;;;;;;478994;246;28730;-70
2022/09/14 04:07:30;;;;;;;1.73;1.63;;;16.60;99.90;;;;;;478926;248;28773;-72
2022/09/14 04:09:31;;;;;;;1.63;1.53;;;16.60;99.90;;;;;;478979;248;28711;-70
2022/09/14 04:11:33;;;;;;;1.90;1.70;;;16.60;99.90;;;;;;478951;248;28831;-71
2022/09/14 04:13:34;;;;;;;1.80;1.70;;;16.50;99.90;;;;;;478949;248;28809;-73
2022/09/14 04:15:35;;;;;;;1.70;1.60;;;16.50;99.90;;;;;;478964;247;28821;-70
2022/09/14 04:17:36;;;;;;;2.00;1.90;;;16.60;99.90;;;;;;478909;248;28758;-71
2022/09/14 04:19:40;;;;;;;1.70;1.60;;;16.60;99.90;;;;;;478946;246;29167;-70
2022/09/14 04:21:39;;;;;;;1.90;1.80;;;16.50;99.90;;;;;;478802;248;29304;-70
2022/09/14 04:23:40;;;;;;;2.00;1.90;;;16.50;99.90;;;;;;478955;248;30077;-70
2022/09/14 04:25:41;;;;;;;2.07;1.97;;;16.50;99.90;;;;;;478967;247;28702;-71
2022/09/14 04:27:42;;;;;;;2.13;1.90;;;16.50;99.90;;;;;;478929;248;28756;-71
2022/09/14 04:29:44;;;;;;;2.10;1.87;;;16.40;99.90;;;;;;478956;248;28798;-70
2022/09/14 04:31:45;;;;;;;1.97;1.70;;;16.40;99.90;;;;;;478947;248;28777;-70
2022/09/14 04:33:49;;;;;;;2.10;1.70;;;16.40;99.90;;;;;;478962;248;28785;-70
2022/09/14 04:35:48;;;;;;;2.90;2.30;;;16.40;99.90;;;;;;478788;248;28754;-70
2022/09/14 04:37:49;;;;;;;2.53;1.80;;;16.30;99.90;;;;;;478904;248;28798;-71
2022/09/14 04:39:50;;;;;;;2.70;2.07;;;16.30;99.90;;;;;;478955;248;28790;-70
2022/09/14 04:41:51;;;;;;;1.90;1.70;;;16.30;99.90;;;;;;478946;248;28750;-70
2022/09/14 04:43:52;;;;;;;2.70;2.10;;;16.30;99.90;;;;;;478958;248;30279;-70
2022/09/14 04:45:54;;;;;;;1.97;1.83;;;16.30;99.90;;;;;;478948;248;29314;-70
2022/09/14 04:47:55;;;;;;;2.50;1.90;;;16.30;99.90;;;;;;478922;248;29327;-72
2022/09/14 04:49:56;;;;;;;3.33;2.00;;;16.40;99.90;;;;;;478954;248;29229;-71
2022/09/14 04:51:57;;;;;;;1.80;1.70;;;16.40;99.90;;;;;;478933;248;28743;-70
2022/09/14 04:53:59;;;;;;;1.57;1.47;;;16.40;99.90;;;;;;478966;248;28707;-70
2022/09/14 04:56:00;;;;;;;1.60;1.50;;;16.40;99.90;;;;;;478941;248;28784;-70
2022/09/14 04:58:01;;;;;;;2.20;1.80;;;16.40;99.90;;;;;;478937;248;28837;-71
2022/09/14 05:00:03;;;;;;;1.40;1.30;;;16.40;99.90;;;;;;478948;248;28726;-70
2022/09/14 05:02:04;;;;;;;1.73;1.63;;;16.50;99.90;;;;;;478884;248;28819;-71
2022/09/14 05:04:05;;;;;;;2.00;1.80;;;16.50;99.90;;;;;;478924;248;28709;-70
2022/09/14 05:06:06;;;;;;;1.67;1.57;;;16.50;99.90;;;;;;478881;248;28742;-71
2022/09/14 05:08:08;;;;;;;1.57;1.47;;;16.50;99.90;;;;;;478887;248;29237;-70
2022/09/14 05:10:10;;;;;;;1.73;1.63;;;16.50;99.90;;;;;;478902;248;29187;-70
2022/09/14 05:12:10;;;;;;;1.47;1.40;;;16.50;99.90;;;;;;478860;248;29315;-70
2022/09/14 05:14:12;;;;;;;1.47;1.40;;;16.50;99.90;;;;;;478900;248;29948;-69
2022/09/14 05:16:13;;;;;;;1.77;1.67;;;16.50;99.90;;;;;;478885;248;28720;-69
2022/09/14 05:18:14;;;;;;;2.97;1.33;;;16.40;99.90;;;;;;478962;248;28781;-71
2022/09/14 05:20:15;;;;;;;1.87;1.77;;;16.50;99.90;;;;;;478958;248;28704;-70
2022/09/14 05:22:16;;;;;;;1.50;1.50;;;16.50;99.90;;;;;;478958;248;28836;-70
2022/09/14 05:24:18;;;;;;;1.80;1.67;;;16.50;99.90;;;;;;478971;248;28788;-69
2022/09/14 05:26:19;;;;;;;1.40;1.40;;;16.60;99.90;;;;;;478918;248;28786;-70
2022/09/14 05:28:20;;;;;;;1.53;1.50;;;16.50;99.90;;;;;;478939;248;28815;-72
2022/09/14 05:30:21;;;;;;;1.30;1.30;;;16.60;99.90;;;;;;478950;248;28787;-69
2022/09/14 05:32:23;;;;;;;1.20;1.20;;;16.60;99.90;;;;;;478959;248;28767;-70
2022/09/14 05:34:24;;;;;;;1.60;1.50;;;16.50;99.90;;;;;;478943;248;29936;-70
2022/09/14 05:36:25;;;;;;;1.30;1.30;;;16.50;99.90;;;;;;478885;248;29181;-70
2022/09/14 05:38:26;;;;;;;1.60;1.50;;;16.60;99.90;;;;;;478958;248;29372;-71
2022/09/14 05:40:28;;;;;;;1.50;1.40;;;16.50;99.90;;;;;;478953;247;28707;-70
2022/09/14 05:42:29;;;;;;;1.23;1.20;;;16.50;99.90;;;;;;478923;248;28754;-70
2022/09/14 05:44:30;;;;;;;2.40;1.30;;;16.60;99.90;;;;;;478930;248;28861;-69
2022/09/14 05:46:31;;;;;;;1.40;1.40;;;16.50;99.90;;;;;;478892;248;28796;-69
2022/09/14 05:48:33;;;;;;;1.50;1.23;;;16.60;99.90;;;;;;478961;248;28746;-72
2022/09/14 05:50:34;;;;;;;1.93;1.80;;;16.60;99.90;;;;;;478928;248;28794;-71
2022/09/14 05:52:35;;;;;;;1.30;1.30;;;16.50;99.90;;;;;;478954;248;28763;-70
2022/09/14 05:54:36;;;;;;;1.50;1.40;;;16.60;99.90;;;;;;478934;246;28866;-70
2022/09/14 05:56:38;;;;;;;1.50;1.40;;;16.60;99.90;;;;;;478892;248;28755;-70
2022/09/14 05:58:39;;;;;;;1.60;1.50;;;16.60;99.90;;;;;;478936;246;29302;-72
2022/09/14 06:00:40;;;;;;;1.40;1.30;;;16.60;99.90;;;;;;478948;248;29180;-70
2022/09/14 06:02:41;;;;;;;1.50;1.40;;;16.70;99.90;;;;;;478928;248;29246;-70
2022/09/14 06:04:43;;;;;;;1.50;1.40;;;16.70;99.90;;;;;;478918;248;28820;-70
2022/09/14 06:06:44;;;;;;;1.57;1.47;;;16.70;99.90;;;;;;478893;248;28852;-71
2022/09/14 06:08:45;;;;;;;1.77;1.43;;;16.60;99.90;;;;;;478961;248;28823;-73
2022/09/14 06:10:46;;;;;;;1.47;1.37;;;16.70;99.90;;;;;;478949;246;28898;-70
2022/09/14 06:12:48;;;;;;;1.70;1.30;;;16.70;99.90;;;;;;478946;248;28749;-70
2022/09/14 06:14:49;;;;;;;1.73;1.63;;;16.70;99.90;;;;;;478941;248;28721;-69
2022/09/14 06:16:50;;;;;;;1.90;1.50;;;16.80;99.90;;;;;;478863;248;28757;-70
2022/09/14 06:18:51;;;;;;;1.50;1.40;;;16.80;99.90;;;;;;478957;248;28844;-73
2022/09/14 06:20:53;;;;;;;1.57;1.47;;;16.80;99.90;;;;;;478947;248;28823;-70
2022/09/14 06:22:54;;;;;;;1.77;1.67;;;16.80;99.90;;;;;;478928;248;29237;-71
2022/09/14 06:24:55;;;;;;;1.83;1.70;;;16.90;99.90;;;;;;478939;247;29258;-70
2022/09/14 06:26:56;;;;;;;1.57;1.47;;;16.90;99.90;;;;;;478867;248;29236;-70
2022/09/14 06:28:58;;;;;;;1.90;1.80;;;16.90;99.90;;;;;;478953;248;29220;-72
2022/09/14 06:30:59;;;;;;;2.47;1.70;;;16.90;99.90;;;;;;478979;248;28820;-70
2022/09/14 06:33:00;;;;;;;2.40;2.20;;;16.90;99.90;;;;;;478980;248;28842;-71
2022/09/14 06:35:02;;;;;;;2.33;1.90;;;16.90;99.90;;;;;;478949;248;28706;-69
2022/09/14 06:37:03;;;;;;;2.47;2.17;;;16.90;99.90;;;;;;478896;248;28749;-70
2022/09/14 06:39:04;;;;;;;2.27;2.03;;;17.00;99.90;;;;;;478966;248;29178;-72
2022/09/14 06:41:05;;;;;;;2.20;2.00;;;17.00;99.90;;;;;;478955;248;28718;-70
2022/09/14 06:43:06;;;;;;;2.63;2.33;;;17.00;99.90;;;;;;478922;248;28842;-71
2022/09/14 06:45:08;;;;;;;2.43;2.23;;;17.00;99.90;;;;;;478944;248;29171;-70
2022/09/14 06:47:09;;;;;;;3.87;3.00;;;17.10;99.90;;;;;;478891;248;29254;-70
2022/09/14 06:49:10;;;;;;;5.83;3.43;;;17.10;99.90;;;;;;478964;248;29364;-73
2022/09/14 06:51:11;;;;;;;4.13;3.33;;;17.10;99.90;;;;;;478951;248;28800;-70
2022/09/14 06:53:13;;;;;;;4.53;3.40;;;17.10;99.90;;;;;;478948;248;28748;-70
2022/09/14 06:55:14;;;;;;;4.87;3.20;;;17.10;99.90;;;;;;478929;248;28815;-69
2022/09/14 06:57:15;;;;;;;3.67;3.30;;;17.20;99.90;;;;;;478874;248;28757;-70
2022/09/14 06:59:16;;;;;;;5.40;4.10;;;17.20;99.90;;;;;;478958;248;28764;-73
2022/09/14 07:01:18;;;;;;;6.67;4.00;;;17.20;99.90;;;;;;478948;247;28737;-70
2022/09/14 07:03:19;;;;;;;5.73;4.40;;;17.20;99.90;;;;;;478910;248;28760;-70
2022/09/14 07:05:21;;;;;;;5.43;3.60;;;17.20;99.90;;;;;;478906;248;28791;-69
2022/09/14 07:07:21;;;;;;;9.10;4.20;;;17.30;99.90;;;;;;478855;248;28826;-70
2022/09/14 07:09:23;;;;;;;4.77;3.77;;;17.30;99.90;;;;;;478953;248;29318;-73
2022/09/14 07:11:28;;;;;;;4.67;3.60;;;17.40;99.90;;;;;;478927;248;29311;-69
2022/09/14 07:13:25;;;;;;;4.60;3.73;;;17.40;99.90;;;;;;478781;248;29223;-71
2022/09/14 07:15:26;;;;;;;4.10;3.70;;;17.40;99.90;;;;;;478938;248;28870;-70
2022/09/14 07:17:28;;;;;;;4.20;3.53;;;17.40;99.90;;;;;;478873;248;28749;-70
2022/09/14 07:19:29;;;;;;;4.83;4.30;;;17.40;99.90;;;;;;478941;248;28749;-73
2022/09/14 07:21:30;;;;;;;4.57;3.77;;;17.40;99.90;;;;;;478949;248;28717;-70
2022/09/14 07:23:31;;;;;;;4.27;3.33;;;17.50;99.90;;;;;;478923;248;28767;-70
2022/09/14 07:25:33;;;;;;;4.20;3.80;;;17.50;99.90;;;;;;478871;248;28825;-70
2022/09/14 07:27:34;;;;;;;6.70;4.87;;;17.50;99.90;;;;;;478875;248;28763;-70
2022/09/14 07:29:35;;;;;;;5.50;4.77;;;17.60;99.90;;;;;;478917;248;29197;-72
2022/09/14 07:31:36;;;;;;;4.70;4.07;;;17.60;99.90;;;;;;478982;248;28776;-70
2022/09/14 07:33:38;;;;;;;4.27;3.80;;;17.60;99.90;;;;;;478951;248;29252;-70
2022/09/14 07:35:39;;;;;;;3.87;3.47;;;17.70;99.90;;;;;;478954;248;29270;-69
2022/09/14 07:37:40;;;;;;;5.93;4.60;;;17.80;99.90;;;;;;478900;248;29271;-70
2022/09/14 07:39:42;;;;;;;5.73;4.53;;;17.90;99.90;;;;;;478975;248;29283;-72
2022/09/14 07:41:43;;;;;;;3.70;3.40;;;18.00;99.90;;;;;;478963;248;28712;-70
2022/09/14 07:43:44;;;;;;;4.60;4.17;;;18.00;99.90;;;;;;478967;248;28795;-71
2022/09/14 07:45:45;;;;;;;4.83;4.20;;;18.00;99.90;;;;;;478952;248;28819;-69
2022/09/14 07:47:46;;;;;;;4.40;4.00;;;18.00;99.90;;;;;;478890;248;28848;-70
2022/09/14 07:49:48;;;;;;;5.50;4.70;;;18.00;99.90;;;;;;478986;248;29135;-70
2022/09/14 07:51:49;;;;;;;3.87;3.57;;;18.10;99.90;;;;;;478966;248;28791;-70
2022/09/14 07:53:50;;;;;;;4.90;4.37;;;18.20;99.90;;;;;;478977;248;28824;-70
2022/09/14 07:55:51;;;;;;;5.73;4.73;;;18.30;99.90;;;;;;478976;248;28716;-70
2022/09/14 07:57:53;;;;;;;6.47;5.50;;;18.40;99.90;;;;;;478909;248;28830;-71
2022/09/14 07:59:54;;;;;;;5.30;4.80;;;18.30;99.90;;;;;;478972;248;29317;-73
2022/09/14 08:01:55;;;;;;;6.30;5.17;;;18.40;99.90;;;;;;478932;248;29236;-70
2022/09/14 08:03:57;;;;;;;5.13;4.63;;;18.40;99.90;;;;;;478944;248;29261;-71
2022/09/14 08:05:58;;;;;;;6.30;5.47;;;18.50;99.90;;;;;;478961;248;28734;-70
2022/09/14 08:07:59;;;;;;;6.73;5.80;;;18.50;99.90;;;;;;478880;248;28768;-71
2022/09/14 08:10:01;;;;;;;7.90;6.10;;;18.60;99.90;;;;;;478925;248;28769;-70
2022/09/14 08:12:02;;;;;;;7.53;5.97;;;18.60;99.90;;;;;;478937;248;28809;-70
2022/09/14 08:14:03;;;;;;;7.50;6.40;;;18.60;99.90;;;;;;478950;248;28775;-72
2022/09/14 08:16:04;;;;;;;7.33;5.63;;;18.50;99.90;;;;;;478908;248;28812;-72
2022/09/14 08:18:05;;;;;;;6.50;5.80;;;18.60;99.90;;;;;;478920;248;28797;-71
2022/09/14 08:20:06;;;;;;;6.37;5.20;;;18.60;99.90;;;;;;478953;248;28773;-73
2022/09/14 08:22:08;;;;;;;7.33;5.60;;;18.70;99.90;;;;;;478977;248;28783;-70
2022/09/14 08:24:09;;;;;;;7.17;5.27;;;18.70;99.90;;;;;;478961;248;29316;-71
2022/09/14 08:26:10;;;;;;;6.70;6.00;;;18.70;99.90;;;;;;478908;248;29186;-69
2022/09/14 08:28:11;;;;;;;5.93;5.33;;;18.70;99.90;;;;;;478938;248;29227;-70
2022/09/14 08:30:13;;;;;;;5.33;4.83;;;18.80;99.90;;;;;;478977;248;28853;-73
2022/09/14 08:32:14;;;;;;;5.40;4.90;;;18.80;99.90;;;;;;478972;248;28818;-70
2022/09/14 08:34:15;;;;;;;8.33;5.73;;;18.80;99.90;;;;;;478966;248;28752;-72
2022/09/14 08:36:16;;;;;;;9.10;6.10;;;18.80;99.90;;;;;;478897;248;28751;-70
2022/09/14 08:38:18;;;;;;;6.50;5.90;;;18.90;99.90;;;;;;478951;248;28752;-71
2022/09/14 08:40:19;;;;;;;8.53;5.60;;;18.90;99.90;;;;;;478972;248;28758;-70
2022/09/14 08:42:21;;;;;;;5.90;5.33;;;19.00;99.90;;;;;;478944;248;28726;-70
2022/09/14 08:44:21;;;;;;;7.50;5.87;;;19.10;99.90;;;;;;478880;248;28836;-72
2022/09/14 08:46:23;;;;;;;5.10;4.60;;;19.20;99.90;;;;;;478864;248;28836;-70
2022/09/14 08:48:24;;;;;;;7.00;6.03;;;19.50;99.90;;;;;;478932;248;29348;-70
2022/09/14 08:50:25;;;;;;;5.90;5.30;;;19.70;99.90;;;;;;478975;248;29237;-72
2022/09/14 08:52:27;;;;;;;7.87;5.90;;;19.80;99.90;;;;;;478958;248;29269;-70
2022/09/14 08:54:28;;;;;;;5.53;5.03;;;19.80;99.90;;;;;;478946;248;28829;-71
2022/09/14 08:56:30;;;;;;;5.90;5.40;;;19.80;99.90;;;;;;478905;248;28725;-70
2022/09/14 08:58:30;;;;;;;6.50;5.60;;;19.90;99.90;;;;;;478941;248;28847;-70
2022/09/14 09:00:31;;;;;;;5.50;5.00;;;19.90;99.90;;;;;;478969;248;28757;-73
2022/09/14 09:02:33;;;;;;;5.27;4.77;;;19.90;99.90;;;;;;478974;248;28728;-70
2022/09/14 09:04:34;;;;;;;5.40;4.90;;;19.80;99.90;;;;;;478942;248;28763;-71
2022/09/14 09:06:35;;;;;;;4.90;4.50;;;19.80;99.90;;;;;;478897;248;28827;-70
2022/09/14 09:08:37;;;;;;;5.33;4.27;;;19.70;99.90;;;;;;478947;248;28874;-71
2022/09/14 09:10:38;;;;;;;5.60;4.60;;;19.90;99.90;;;;;;479000;248;28788;-74
2022/09/14 09:12:39;;;;;;;5.43;4.83;;;20.10;99.90;;;;;;478979;248;29268;-70
2022/09/14 09:14:40;;;;;;;4.50;4.10;;;20.20;99.90;;;;;;478978;248;29247;-70
2022/09/14 09:16:42;;;;;;;4.70;4.27;;;20.20;99.90;;;;;;478911;248;29259;-70
2022/09/14 09:18:43;;;;;;;5.57;4.20;;;20.40;99.90;;;;;;478938;247;29346;-70
2022/09/14 09:20:45;;;;;;;5.23;4.50;;;20.40;99.90;;;;;;478979;248;28743;-73
2022/09/14 09:22:45;;;;;;;4.97;4.47;;;20.50;99.90;;;;;;478953;247;28800;-70
2022/09/14 09:24:47;;;;;;;5.20;4.70;;;20.50;99.90;;;;;;478957;248;28910;-71
2022/09/14 09:26:49;;;;;;;4.73;4.30;;;20.60;99.90;;;;;;478887;246;28885;-70
2022/09/14 09:28:49;;;;;;;5.30;4.10;;;20.50;99.90;;;;;;476964;248;36213;-70
2022/09/14 09:30:50;;;;;;;7.03;4.80;;;20.50;99.90;;;;;;478975;248;27882;-73
2022/09/14 09:32:52;;;;;;;5.20;4.40;;;20.50;99.90;;;;;;478991;246;28821;-70
2022/09/14 09:34:53;;;;;;;7.70;4.50;;;20.50;99.90;;;;;;478866;248;28751;-71
2022/09/14 09:36:59;;;;;;;5.23;3.83;;;20.50;99.90;;;;;;478886;248;29159;-70
2022/09/14 09:38:55;;;;;;;5.07;4.20;;;20.60;99.90;;;;;;478656;248;30018;-73
2022/09/14 09:40:57;;;;;;;5.00;4.50;;;20.90;99.90;;;;;;478967;248;29434;-73
2022/09/14 09:42:58;;;;;;;4.87;4.10;;;21.00;99.90;;;;;;478950;248;29186;-70
2022/09/14 09:44:59;;;;;;;4.13;3.83;;;21.10;99.90;;;;;;478939;248;28843;-72
2022/09/14 09:47:00;;;;;;;4.27;3.97;;;21.10;99.90;;;;;;478906;248;28713;-70
2022/09/14 09:49:02;;;;;;;5.77;4.00;;;21.10;99.90;;;;;;478958;248;28757;-71
2022/09/14 09:51:03;;;;;;;7.23;4.23;;;21.20;99.90;;;;;;478955;246;28774;-70
2022/09/14 09:53:04;;;;;;;4.23;3.50;;;21.30;99.90;;;;;;478955;246;28798;-70
2022/09/14 09:55:05;;;;;;;4.60;3.83;;;21.30;99.90;;;;;;478951;248;28779;-71
2022/09/14 09:57:07;;;;;;;3.77;3.30;;;21.30;99.90;;;;;;478878;248;28848;-70
2022/09/14 09:59:08;;;;;;;4.70;3.40;;;21.60;99.90;;;;;;478952;248;28760;-71
2022/09/14 10:01:09;;;;;;;4.03;3.60;;;21.80;99.90;;;;;;478960;248;30146;-70
2022/09/14 10:03:10;;;;;;;3.40;3.07;;;21.90;99.90;;;;;;478937;247;29184;-70
2022/09/14 10:05:12;;;;;;;3.50;3.20;;;21.90;99.90;;;;;;478945;248;29336;-71
2022/09/14 10:07:13;;;;;;;3.57;3.23;;;21.90;99.90;;;;;;478855;248;29264;-70
2022/09/14 10:09:14;;;;;;;3.20;2.90;;;21.90;99.90;;;;;;478916;248;28744;-71
2022/09/14 10:11:15;;;;;;;4.27;3.27;;;22.00;99.90;;;;;;478946;248;28810;-70
2022/09/14 10:13:17;;;;;;;3.40;3.10;;;22.00;99.90;;;;;;478942;248;28737;-70
2022/09/14 10:15:18;;;;;;;3.20;2.83;;;22.00;99.90;;;;;;478952;248;28898;-72
2022/09/14 10:17:19;;;;;;;3.30;3.00;;;22.10;99.90;;;;;;478901;248;28751;-70
2022/09/14 10:19:21;;;;;;;3.70;2.70;;;22.10;99.90;;;;;;478940;248;28830;-70
2022/09/14 10:21:22;;;;;;;4.53;2.90;;;22.00;99.90;;;;;;478963;248;28818;-74
2022/09/14 10:23:23;;;;;;;2.90;2.60;;;22.10;99.90;;;;;;478951;248;28816;-70
2022/09/14 10:25:24;;;;;;;3.10;2.90;;;22.10;99.90;;;;;;478958;248;29294;-73
2022/09/14 10:27:25;;;;;;;3.67;2.93;;;21.90;99.90;;;;;;478928;248;29283;-70
2022/09/14 10:29:27;;;;;;;4.10;2.63;;;21.90;99.90;;;;;;478954;248;29229;-70
2022/09/14 10:31:29;;;;;;;3.13;2.70;;;21.80;99.90;;;;;;478959;248;29249;-70